Time;durP1;ratioP1;P1;durP2;ratioP2;P2;SDS_P1;SDS_P2;PMS_P1;PMS_P2;Temp;Humidity;BMP_temperature;BMP_pressure;BME280_temperature;BME280_humidity;BME280_pressure;Samples;Min_cycle;Max_cycle;Signal;HPM_P1;HPM_P2
2022/09/27 00:00:05;;;;;;;44.95;21.80;;;;;;;8.04;87.14;97311.20;1727792;83;26050;-68
2022/09/27 00:02:31;;;;;;;37.93;19.87;;;;;;;7.96;86.66;97304.67;1728173;82;25653;-68
2022/09/27 00:04:57;;;;;;;43.08;21.05;;;;;;;7.93;86.56;97300.42;1727525;83;25794;-68
2022/09/27 00:07:24;;;;;;;43.70;21.80;;;;;;;7.87;86.70;97296.55;1728129;83;25633;-69
2022/09/27 00:09:50;;;;;;;41.45;21.23;;;;;;;7.89;86.86;97299.72;1728079;83;27496;-68
2022/09/27 00:12:16;;;;;;;42.67;20.60;;;;;;;7.91;86.78;97295.30;1727795;83;25899;-68
2022/09/27 00:14:42;;;;;;;40.70;19.82;;;;;;;7.80;86.29;97293.52;1727767;83;25666;-69
2022/09/27 00:17:09;;;;;;;34.73;19.15;;;;;;;7.68;86.37;97289.34;1727819;83;25731;-69
2022/09/27 00:19:35;;;;;;;44.55;22.00;;;;;;;7.55;86.71;97286.52;1727694;83;25913;-69
2022/09/27 00:22:02;;;;;;;37.00;19.65;;;;;;;7.44;86.89;97290.72;1727883;83;28392;-68
2022/09/27 00:24:28;;;;;;;34.85;20.02;;;;;;;7.35;87.02;97286.67;1727596;83;25597;-69
2022/09/27 00:26:54;;;;;;;41.05;21.25;;;;;;;7.27;87.46;97278.76;1727485;83;25621;-68
2022/09/27 00:29:20;;;;;;;36.03;20.92;;;;;;;7.18;87.78;97284.23;1728046;83;25753;-69
2022/09/27 00:31:46;;;;;;;35.00;20.72;;;;;;;7.13;88.02;97279.77;1728078;83;25687;-68
2022/09/27 00:34:23;;;;;;;33.85;20.88;;;;;;;7.13;88.09;97277.04;1727579;83;27458;-68
2022/09/27 00:36:50;;;;;;;36.40;21.12;;;;;;;7.18;88.24;97265.72;1727716;83;25738;-69
2022/09/27 00:39:18;;;;;;;40.52;23.12;;;;;;;7.25;88.44;97266.01;1727754;83;25591;-69
2022/09/27 00:41:45;;;;;;;37.70;21.17;;;;;;;7.29;88.44;97258.80;1727929;83;25914;-68
2022/09/27 00:44:32;;;;;;;31.85;17.90;;;;;;;7.26;88.49;97254.78;1727797;83;25629;-68
2022/09/27 00:47:28;;;;;;;27.95;16.55;;;;;;;7.15;89.24;97247.55;1727835;83;28654;-68
2022/09/27 00:50:07;;;;;;;25.88;15.13;;;;;;;7.10;89.41;97246.36;1727768;83;25621;-67
2022/09/27 00:52:54;;;;;;;25.62;16.12;;;;;;;7.12;89.78;97248.76;1727520;83;25720;-68
2022/09/27 00:55:32;;;;;;;25.57;15.53;;;;;;;7.15;89.72;97242.66;1727667;83;25742;-68
2022/09/27 00:58:04;;;;;;;26.52;16.10;;;;;;;7.14;89.44;97241.07;1727548;83;25488;-67
2022/09/27 01:00:34;;;;;;;25.80;14.63;;;;;;;7.09;89.55;97228.98;1727476;83;27633;-68
2022/09/27 01:03:05;;;;;;;27.00;15.72;;;;;;;7.12;89.57;97229.14;1701148;83;26031;-68
2022/09/27 01:05:36;;;;;;;22.52;14.13;;;;;;;7.14;89.45;97228.23;1727860;83;25642;-67
2022/09/27 01:08:08;;;;;;;25.17;14.43;;;;;;;7.10;89.50;97218.31;1727835;83;25859;-68
2022/09/27 01:10:46;;;;;;;24.65;13.55;;;;;;;7.05;89.66;97219.28;1727603;83;25661;-68
2022/09/27 01:13:32;;;;;;;20.70;12.20;;;;;;;6.99;89.97;97222.76;1701138;84;28222;-69
2022/09/27 01:16:25;;;;;;;32.13;14.73;;;;;;;6.95;90.37;97220.45;1727250;83;25661;-69
2022/09/27 01:19:12;;;;;;;23.50;14.25;;;;;;;6.93;90.66;97211.80;1727914;83;25459;-68
2022/09/27 01:21:46;;;;;;;25.02;15.15;;;;;;;6.92;90.86;97205.31;1698169;84;25754;-68
2022/09/27 01:24:38;;;;;;;22.32;14.23;;;;;;;6.88;90.90;97203.83;1697441;84;25568;-67
2022/09/27 01:27:10;;;;;;;;;;;;;;;6.93;91.10;97204.99;1700081;84;27566;-67
2022/09/27 01:29:54;;;;;;;22.82;14.00;;;;;;;6.98;91.08;97195.30;1697080;84;25734;-67
2022/09/27 01:32:40;;;;;;;22.62;14.53;;;;;;;7.01;91.26;97194.64;1698231;84;25681;-68
2022/09/27 01:35:17;;;;;;;22.55;13.78;;;;;;;7.05;91.30;97187.18;1698431;84;25895;-68
2022/09/27 01:38:24;;;;;;;21.07;13.85;;;;;;;7.06;91.38;97179.23;1697258;84;25738;-68
2022/09/27 01:41:10;;;;;;;23.25;14.38;;;;;;;7.08;91.63;97170.96;1697853;84;27487;-66
2022/09/27 01:44:06;;;;;;;21.62;13.55;;;;;;;7.18;91.80;97166.28;1698131;84;26046;-66
2022/09/27 01:46:38;;;;;;;21.07;13.88;;;;;;;7.16;91.83;97161.16;1698140;84;25597;-67
2022/09/27 01:49:09;;;;;;;21.45;13.48;;;;;;;7.19;92.08;97163.81;1697399;84;26660;-66
2022/09/27 01:51:41;;;;;;;20.90;13.78;;;;;;;7.17;91.82;97155.96;1697961;84;25503;-67
2022/09/27 01:54:11;;;;;;;21.97;13.70;;;;;;;7.15;91.60;97157.66;1697258;84;27397;-67
2022/09/27 01:56:42;;;;;;;21.68;13.68;;;;;;;7.18;91.64;97160.27;1698337;84;25690;-67
2022/09/27 01:59:29;;;;;;;21.62;13.22;;;;;;;7.20;91.47;97158.59;1712783;83;25550;-68
2022/09/27 02:01:59;;;;;;;18.87;12.68;;;;;;;7.13;91.45;97153.64;1727647;83;26606;-67
2022/09/27 02:04:30;;;;;;;21.52;14.07;;;;;;;7.10;91.69;97161.91;1727831;83;25750;-68
2022/09/27 02:07:04;;;;;;;20.23;14.10;;;;;;;7.09;92.03;97160.33;1728031;83;32981;-67
2022/09/27 02:09:36;;;;;;;25.60;15.45;;;;;;;7.13;91.91;97159.89;1702625;84;25684;-67
2022/09/27 02:12:06;;;;;;;21.30;14.30;;;;;;;7.18;92.00;97154.83;1727792;83;25546;-66
2022/09/27 02:14:49;;;;;;;23.67;14.80;;;;;;;7.22;91.67;97150.31;1728109;83;25762;-67
2022/09/27 02:17:30;;;;;;;21.57;14.10;;;;;;;7.27;91.47;97153.41;1727993;82;25489;-67
2022/09/27 02:20:13;;;;;;;25.05;13.80;;;;;;;7.34;91.34;97135.19;1728209;83;28424;-67
2022/09/27 02:22:51;;;;;;;18.32;12.13;;;;;;;7.28;90.82;97131.84;1727983;83;25579;-67
2022/09/27 02:25:22;;;;;;;19.57;12.60;;;;;;;7.20;91.55;97131.34;1727922;83;25613;-67
2022/09/27 02:28:09;;;;;;;19.65;13.00;;;;;;;7.19;91.92;97135.98;1727899;83;25823;-66
2022/09/27 02:30:35;;;;;;;18.98;12.30;;;;;;;7.19;92.25;97131.89;1727712;83;25587;-67
2022/09/27 02:33:02;;;;;;;18.67;12.35;;;;;;;7.17;92.09;97125.99;1726886;83;28309;-67
2022/09/27 02:35:34;;;;;;;19.80;12.35;;;;;;;7.16;92.33;97127.10;1715989;83;26160;-67
2022/09/27 02:38:02;;;;;;;19.17;12.60;;;;;;;7.21;92.55;97127.48;1716416;83;25645;-67
2022/09/27 02:40:35;;;;;;;18.20;12.28;;;;;;;7.27;92.63;97131.06;1716151;83;26502;-64
2022/09/27 02:43:04;;;;;;;16.80;11.12;;;;;;;7.28;92.49;97119.58;1716204;83;25440;-65
2022/09/27 02:46:15;;;;;;;20.55;12.63;;;;;;;7.30;93.01;97118.69;1716365;83;27433;-67
2022/09/27 02:49:25;;;;;;;22.93;13.28;;;;;;;7.22;92.87;97116.80;1658163;86;25880;-64
2022/09/27 02:52:22;;;;;;;22.53;13.13;;;;;;;7.08;92.64;97114.34;1613247;89;25523;-67
2022/09/27 02:55:05;;;;;;;19.07;12.80;;;;;;;7.03;92.92;97116.69;1612934;89;25842;-70
2022/09/27 02:57:46;;;;;;;20.20;13.90;;;;;;;6.99;92.91;97117.09;1612916;89;25754;-71
2022/09/27 03:00:19;;;;;;;20.80;13.93;;;;;;;6.92;92.85;97120.34;1613223;88;27464;-71
2022/09/27 03:03:01;;;;;;;21.15;13.35;;;;;;;6.88;92.61;97114.74;1613122;88;25840;-72
2022/09/27 03:05:34;;;;;;;22.90;13.75;;;;;;;6.87;92.35;97112.34;1613050;88;25820;-71
2022/09/27 03:08:00;;;;;;;20.80;13.75;;;;;;;6.80;92.05;97105.25;1611428;88;26536;-72
2022/09/27 03:10:28;;;;;;;21.73;13.98;;;;;;;6.77;92.14;97106.13;1613096;88;25699;-71
2022/09/27 03:12:57;;;;;;;17.92;11.12;;;;;;;6.74;92.05;97113.59;1613280;88;27646;-72
2022/09/27 03:15:24;;;;;;;20.02;13.48;;;;;;;6.63;92.00;97110.45;1612700;88;25778;-72
2022/09/27 03:17:50;;;;;;;19.75;12.03;;;;;;;6.52;92.03;97114.09;1613031;88;25786;-72
2022/09/27 03:20:17;;;;;;;18.27;11.85;;;;;;;6.43;92.21;97108.42;1612704;88;25771;-72
2022/09/27 03:22:43;;;;;;;20.20;12.37;;;;;;;6.33;92.31;97113.09;1613201;88;25761;-72
2022/09/27 03:25:10;;;;;;;21.27;13.20;;;;;;;6.24;92.28;97091.91;1642286;86;27579;-72
2022/09/27 03:27:37;;;;;;;19.32;13.00;;;;;;;6.19;92.70;97092.09;1664170;83;26099;-72
2022/09/27 03:30:05;;;;;;;19.82;12.33;;;;;;;6.23;92.84;97088.95;1716215;83;25685;-72
2022/09/27 03:32:31;;;;;;;20.75;13.15;;;;;;;6.18;92.66;97087.75;1716179;83;25847;-71
2022/09/27 03:34:57;;;;;;;19.40;12.60;;;;;;;6.14;92.73;97086.26;1715882;83;25428;-71
2022/09/27 03:37:25;;;;;;;17.65;11.38;;;;;;;6.06;92.71;97080.27;1716273;83;27587;-73
2022/09/27 03:39:51;;;;;;;22.07;13.15;;;;;;;6.01;92.78;97085.28;1716011;83;25431;-74
2022/09/27 03:42:17;;;;;;;18.42;11.28;;;;;;;5.95;92.84;97086.56;1716525;83;25590;-75
2022/09/27 03:44:43;;;;;;;20.23;12.63;;;;;;;5.96;93.18;97089.55;1716249;83;25706;-69
2022/09/27 03:47:09;;;;;;;18.50;11.93;;;;;;;6.01;93.13;97088.00;1716371;83;25626;-72
2022/09/27 03:49:35;;;;;;;20.97;13.13;;;;;;;6.07;93.08;97092.77;1716478;83;27386;-71
2022/09/27 03:52:02;;;;;;;19.12;11.63;;;;;;;6.07;92.89;97088.68;1715934;83;25968;-75
2022/09/27 03:54:28;;;;;;;16.65;10.90;;;;;;;6.08;92.75;97086.19;1716576;83;25655;-72
2022/09/27 03:56:54;;;;;;;19.15;10.88;;;;;;;6.03;92.63;97088.48;1716261;83;25738;-67
2022/09/27 03:59:20;;;;;;;23.52;15.48;;;;;;;5.98;93.16;97088.09;1715961;83;25700;-72
2022/09/27 04:01:46;;;;;;;21.73;13.03;;;;;;;5.97;93.26;97081.61;1715937;83;27479;-76
2022/09/27 04:04:12;;;;;;;16.85;11.35;;;;;;;5.99;93.19;97078.02;1716176;83;25914;-73
2022/09/27 04:06:38;;;;;;;20.65;12.95;;;;;;;6.00;93.24;97077.70;1716248;83;25452;-74
2022/09/27 04:09:04;;;;;;;22.00;13.05;;;;;;;6.05;93.20;97077.31;1716347;83;25747;-76
2022/09/27 04:11:30;;;;;;;19.45;11.60;;;;;;;6.08;93.18;97066.59;1716337;83;25678;-68
2022/09/27 04:13:57;;;;;;;18.62;11.75;;;;;;;6.09;92.83;97073.63;1716253;83;28339;-73
2022/09/27 04:16:24;;;;;;;18.92;12.10;;;;;;;6.06;92.76;97064.75;1715931;83;25500;-69
2022/09/27 04:18:50;;;;;;;18.87;12.25;;;;;;;6.07;92.72;97065.56;1716005;83;25680;-76
2022/09/27 04:21:16;;;;;;;18.23;12.05;;;;;;;6.06;92.90;97065.30;1716228;83;26647;-76
2022/09/27 04:23:42;;;;;;;19.60;9.95;;;;;;;6.07;92.47;97053.33;1716028;83;25412;-76
2022/09/27 04:26:08;;;;;;;19.45;12.93;;;;;;;6.01;92.57;97051.28;1716148;83;27348;-77
2022/09/27 04:28:34;;;;;;;18.95;11.73;;;;;;;6.01;92.68;97058.09;1716112;83;25755;-76
2022/09/27 04:31:00;;;;;;;20.05;12.78;;;;;;;6.04;92.86;97064.27;1716166;83;25491;-76
2022/09/27 04:33:26;;;;;;;18.90;10.82;;;;;;;6.07;92.81;97050.61;1716318;83;25846;-76
2022/09/27 04:38:36;;;;;;;22.07;13.00;;;;;;;5.98;92.77;97047.30;1715917;83;26545;-76
2022/09/27 04:41:03;;;;;;;18.77;12.30;;;;;;;5.95;93.03;97035.71;1715987;83;25485;-75
2022/09/27 04:43:29;;;;;;;22.85;13.25;;;;;;;5.94;93.15;97036.84;1716339;83;25659;-75
2022/09/27 04:45:55;;;;;;;21.55;12.90;;;;;;;5.90;93.28;97040.76;1716167;83;25833;-75
2022/09/27 04:48:21;;;;;;;23.38;13.75;;;;;;;5.92;93.34;97046.42;1716146;83;25663;-75
2022/09/27 04:50:47;;;;;;;20.68;12.88;;;;;;;5.95;93.60;97040.34;1716417;83;27429;-75
2022/09/27 04:53:14;;;;;;;19.65;11.90;;;;;;;6.01;93.87;97043.13;1717849;83;25593;-70
2022/09/27 04:55:47;;;;;;;19.23;12.53;;;;;;;6.06;93.68;97032.12;1716187;83;26038;-68
2022/09/27 04:58:13;;;;;;;21.40;13.18;;;;;;;6.12;93.71;97030.83;1716047;83;25771;-72
2022/09/27 05:00:42;;;;;;;25.00;14.47;;;;;;;6.18;93.71;97028.72;1716278;83;25638;-75
2022/09/27 05:03:08;;;;;;;21.17;11.75;;;;;;;6.21;93.78;97031.34;1715752;83;26701;-73
2022/09/27 05:05:34;;;;;;;21.00;13.28;;;;;;;6.29;94.08;97033.25;1716000;83;25685;-74
2022/09/27 05:08:01;;;;;;;18.25;12.82;;;;;;;6.31;93.79;97031.02;1716250;83;25672;-75
2022/09/27 05:10:27;;;;;;;21.07;13.10;;;;;;;6.42;94.00;97033.37;1716231;83;25800;-74
2022/09/27 05:12:53;;;;;;;21.37;13.10;;;;;;;6.51;93.89;97037.63;1715880;83;25713;-73
2022/09/27 05:15:19;;;;;;;19.07;13.13;;;;;;;6.59;93.75;97038.72;1716124;83;27470;-75
2022/09/27 05:17:45;;;;;;;20.70;13.40;;;;;;;6.66;93.66;97035.50;1716008;83;25524;-73
2022/09/27 05:20:11;;;;;;;21.23;11.75;;;;;;;6.73;93.75;97039.05;1716232;83;25602;-66
2022/09/27 05:22:39;;;;;;;20.35;12.93;;;;;;;6.76;93.50;97036.48;1716113;83;26541;-65
2022/09/27 05:25:07;;;;;;;22.48;13.60;;;;;;;6.78;93.63;97036.96;1716236;83;25434;-64
2022/09/27 05:27:34;;;;;;;18.15;11.78;;;;;;;6.85;93.81;97039.73;1716140;83;27427;-69
2022/09/27 05:30:00;;;;;;;21.60;11.25;;;;;;;6.85;93.41;97033.70;1716072;83;25813;-72
2022/09/27 05:32:28;;;;;;;17.42;11.20;;;;;;;6.86;93.49;97033.95;1716035;83;25496;-71
2022/09/27 05:34:55;;;;;;;18.80;12.03;;;;;;;6.88;93.42;97031.69;1721349;83;25856;-74
2022/09/27 05:37:32;;;;;;;;;;;;;;;;;;;;;
2022/09/27 05:39:50;;;;;;;17.90;11.00;;;;;;;6.94;93.39;97028.20;1715723;83;25995;-74
2022/09/27 05:42:16;;;;;;;17.27;11.43;;;;;;;6.94;93.25;97021.97;1727412;83;25686;-74
2022/09/27 05:44:46;;;;;;;19.25;11.03;;;;;;;6.98;93.46;97022.90;1727878;83;25753;-73
2022/09/27 05:47:12;;;;;;;19.05;11.48;;;;;;;7.01;93.27;97021.69;1727464;82;25491;-75
2022/09/27 05:49:39;;;;;;;17.35;11.33;;;;;;;7.03;93.39;97019.41;1727653;83;25586;-75
2022/09/27 05:52:06;;;;;;;16.52;11.22;;;;;;;7.08;93.01;97022.50;1727659;83;27679;-73
2022/09/27 05:54:34;;;;;;;17.65;11.43;;;;;;;7.15;93.03;97018.71;1727542;83;25672;-74
2022/09/27 05:57:00;;;;;;;17.52;11.38;;;;;;;7.20;92.86;97018.28;1727764;83;25630;-74
2022/09/27 05:59:27;;;;;;;16.07;9.85;;;;;;;7.23;92.67;97014.30;1727397;83;25673;-75
2022/09/27 06:01:54;;;;;;;21.77;13.22;;;;;;;7.31;92.93;97014.01;1727453;83;25640;-75
2022/09/27 06:04:20;;;;;;;16.70;11.48;;;;;;;7.40;92.72;97015.32;1727407;83;27385;-74
2022/09/27 06:06:48;;;;;;;16.15;9.75;;;;;;;7.46;92.43;97013.98;1727757;83;25682;-75
2022/09/27 06:09:16;;;;;;;19.73;11.28;;;;;;;7.50;92.36;97013.55;1727739;83;25437;-75
2022/09/27 06:11:44;;;;;;;16.00;11.00;;;;;;;7.59;92.37;97013.46;1727840;83;25587;-75
2022/09/27 06:14:14;;;;;;;18.32;11.50;;;;;;;7.69;92.36;97012.82;1727845;83;25464;-74
2022/09/27 06:16:40;;;;;;;15.10;9.50;;;;;;;7.77;92.07;97012.73;1727650;83;27644;-74
2022/09/27 06:19:06;;;;;;;12.50;9.03;;;;;;;7.83;92.05;97019.34;1727892;83;25578;-75
2022/09/27 06:21:32;;;;;;;18.07;11.73;;;;;;;7.81;91.63;97016.15;1728073;83;25685;-70
2022/09/27 06:23:59;;;;;;;17.45;10.78;;;;;;;7.78;92.12;97018.98;1727591;83;26481;-70
2022/09/27 06:26:28;;;;;;;16.23;11.10;;;;;;;7.81;92.53;97008.77;1727814;83;25663;-72
2022/09/27 06:28:55;;;;;;;18.80;12.05;;;;;;;7.87;92.76;97012.89;1727442;83;27659;-73
2022/09/27 06:31:22;;;;;;;13.88;9.40;;;;;;;7.94;92.66;97004.72;1727529;83;25436;-69
2022/09/27 06:33:49;;;;;;;18.70;12.10;;;;;;;8.01;92.51;96999.50;1727782;83;25633;-73
2022/09/27 06:36:16;;;;;;;17.27;10.78;;;;;;;8.07;92.66;96999.52;1716965;83;26673;-71
2022/09/27 06:38:47;;;;;;;19.32;11.55;;;;;;;8.17;92.65;96996.91;1715767;83;25658;-70
2022/09/27 06:41:12;;;;;;;16.85;11.65;;;;;;;8.27;92.78;96993.73;1715362;83;25937;-69
2022/09/27 06:43:38;;;;;;;18.00;11.73;;;;;;;8.45;92.74;96996.82;1715866;83;25689;-68
2022/09/27 06:46:05;;;;;;;17.65;11.45;;;;;;;8.56;92.56;96999.92;1715864;83;25641;-68
2022/09/27 06:48:33;;;;;;;19.42;12.25;;;;;;;8.67;92.12;96995.61;1716058;83;25576;-69
2022/09/27 06:50:59;;;;;;;18.82;11.05;;;;;;;8.84;92.59;96998.65;1715819;83;25509;-68
2022/09/27 06:53:28;;;;;;;16.75;11.73;;;;;;;8.97;91.90;96993.98;1716113;83;27622;-69
2022/09/27 06:56:01;;;;;;;19.95;11.70;;;;;;;9.18;92.44;96990.87;1715679;83;25635;-69
2022/09/27 07:01:16;;;;;;;16.25;11.12;;;;;;;9.52;91.89;96987.33;1715861;83;25743;-70
2022/09/27 07:03:43;;;;;;;17.55;11.05;;;;;;;9.62;91.44;96986.05;1715950;83;25686;-69
2022/09/27 07:06:21;;;;;;;19.45;12.15;;;;;;;9.76;91.40;96985.64;1716138;83;28195;-69
2022/09/27 07:08:52;;;;;;;20.90;12.73;;;;;;;9.90;91.35;96998.32;1714044;83;26261;-70
2022/09/27 07:11:19;;;;;;;16.35;10.82;;;;;;;10.09;91.31;96998.78;1716472;83;25509;-70
2022/09/27 07:13:46;;;;;;;16.65;11.78;;;;;;;10.23;90.50;96988.78;1716273;83;26508;-70
2022/09/27 07:16:14;;;;;;;17.65;12.07;;;;;;;10.38;90.74;96986.62;1716190;83;25622;-70
2022/09/27 07:18:41;;;;;;;14.60;10.53;;;;;;;10.53;89.95;96989.16;1716141;83;27488;-70
2022/09/27 07:21:09;;;;;;;17.35;10.15;;;;;;;10.60;89.79;96980.33;1715790;83;27242;-70
2022/09/27 07:23:36;;;;;;;12.93;9.23;;;;;;;10.57;89.16;96981.60;1715934;83;25643;-70
2022/09/27 07:26:07;;;;;;;15.90;10.68;;;;;;;10.58;89.09;96976.33;1715847;83;25720;-70
2022/09/27 07:28:34;;;;;;;14.60;9.53;;;;;;;10.66;89.59;96983.58;1716196;83;25418;-71
2022/09/27 07:31:02;;;;;;;19.00;11.55;;;;;;;10.65;89.15;96985.52;1716216;83;27600;-71
2022/09/27 07:33:30;;;;;;;16.17;11.12;;;;;;;10.61;89.24;96976.42;1716093;83;25920;-71
2022/09/27 07:35:56;;;;;;;15.68;10.70;;;;;;;10.64;89.61;96964.76;1723352;83;25748;-68
2022/09/27 07:38:23;;;;;;;16.07;10.90;;;;;;;10.73;89.94;96966.49;1727903;83;25710;-70
2022/09/27 07:40:49;;;;;;;15.30;10.50;;;;;;;10.92;89.62;96968.50;1727817;83;25436;-63
2022/09/27 07:43:16;;;;;;;15.23;10.58;;;;;;;10.99;89.32;96972.77;1727811;83;27512;-67
2022/09/27 07:45:43;;;;;;;11.63;7.58;;;;;;;11.18;89.70;96968.46;1727609;83;25389;-69
2022/09/27 07:48:14;;;;;;;17.27;11.90;;;;;;;11.36;88.00;96968.83;1727505;83;25472;-69
2022/09/27 07:50:40;;;;;;;16.95;12.15;;;;;;;11.47;88.12;96976.47;1727332;82;25795;-70
2022/09/27 07:53:11;;;;;;;18.02;13.18;;;;;;;11.70;88.34;96971.62;1727655;83;25467;-70
2022/09/27 07:55:36;;;;;;;21.90;14.10;;;;;;;11.84;86.76;96970.53;1727705;82;25910;-70
2022/09/27 07:58:06;;;;;;;22.32;15.13;;;;;;;12.00;86.76;96969.64;1727614;83;25811;-70
2022/09/27 08:00:33;;;;;;;20.03;14.90;;;;;;;12.12;86.39;96968.69;1728124;83;25615;-71
2022/09/27 08:03:17;;;;;;;22.27;16.10;;;;;;;12.24;86.80;96963.59;1727581;83;25734;-71
2022/09/27 08:05:46;;;;;;;22.02;15.30;;;;;;;12.40;86.16;96971.11;1726426;82;25484;-71
2022/09/27 08:08:14;;;;;;;23.95;16.15;;;;;;;12.53;84.38;96971.70;1727958;83;27575;-71
2022/09/27 08:10:43;;;;;;;24.80;18.20;;;;;;;12.62;84.68;96972.03;1727816;83;25638;-70
2022/09/27 08:13:10;;;;;;;23.10;16.07;;;;;;;12.63;84.47;96975.78;1727577;82;25617;-70
2022/09/27 08:15:37;;;;;;;22.60;15.28;;;;;;;12.54;83.68;96966.44;1727748;83;25685;-70
2022/09/27 08:18:06;;;;;;;21.12;15.93;;;;;;;12.47;83.79;96969.64;1727583;83;25487;-70
2022/09/27 08:20:39;;;;;;;22.37;14.83;;;;;;;12.49;83.60;96966.73;1727939;83;27578;-70
2022/09/27 08:23:06;;;;;;;19.27;14.43;;;;;;;12.49;83.28;96958.49;1727946;83;25476;-68
2022/09/27 08:25:32;;;;;;;21.52;15.10;;;;;;;12.52;83.81;96966.00;1727586;83;25618;-66
2022/09/27 08:28:03;;;;;;;18.12;12.90;;;;;;;12.62;83.82;96952.23;1727570;83;25890;-70
2022/09/27 08:30:31;;;;;;;20.37;13.95;;;;;;;12.71;82.99;96951.95;1727869;83;25435;-70
2022/09/27 08:33:01;;;;;;;17.65;14.53;;;;;;;12.70;83.01;96953.13;1727781;83;28065;-69
2022/09/27 08:35:28;;;;;;;20.30;15.10;;;;;;;12.85;83.31;96947.82;1724085;83;25738;-70
2022/09/27 08:38:00;;;;;;;25.95;17.82;;;;;;;12.95;82.55;96949.92;1715858;83;25449;-71
2022/09/27 08:40:44;;;;;;;22.75;16.07;;;;;;;13.00;82.98;96950.98;1716195;83;25898;-70
2022/09/27 08:43:30;;;;;;;25.12;16.65;;;;;;;13.09;82.67;96938.90;1715038;83;25422;-70
2022/09/27 08:46:20;;;;;;;26.25;17.70;;;;;;;13.22;83.28;96940.27;1710569;83;27298;-69
2022/09/27 08:48:51;;;;;;;22.45;17.30;;;;;;;13.31;82.79;96938.60;1715925;83;25806;-69
2022/09/27 08:51:23;;;;;;;25.25;17.25;;;;;;;13.40;82.99;96936.36;1715895;83;25660;-70
2022/09/27 08:54:03;;;;;;;19.52;14.05;;;;;;;13.50;82.51;96934.91;1716051;83;25695;-71
2022/09/27 08:56:31;;;;;;;18.12;12.53;;;;;;;13.62;82.71;96937.98;1714600;83;25680;-71
2022/09/27 08:59:14;;;;;;;20.40;15.80;;;;;;;13.77;81.66;96934.82;1715879;83;27488;-70
2022/09/27 09:01:42;;;;;;;22.22;15.93;;;;;;;14.34;80.94;96930.78;1715386;83;25603;-62
2022/09/27 09:04:10;;;;;;;27.10;16.70;;;;;;;14.34;80.94;96930.78;1716189;83;25502;-71
2022/09/27 09:07:01;;;;;;;18.23;12.58;;;;;;;14.61;80.47;96927.24;1716620;83;25836;-71
2022/09/27 09:09:39;;;;;;;21.97;14.25;;;;;;;14.82;80.13;96926.42;1716195;83;25674;-69
2022/09/27 09:12:47;;;;;;;17.02;11.83;;;;;;;14.95;80.06;96915.84;1715990;83;27532;-70
2022/09/27 09:15:55;;;;;;;15.05;11.15;;;;;;;15.00;78.40;96912.72;1715785;83;25686;-70
2022/09/27 09:18:59;;;;;;;12.73;9.78;;;;;;;15.12;79.48;96911.59;1715947;83;25674;-70
2022/09/27 09:22:03;;;;;;;10.93;8.93;;;;;;;15.30;78.53;96904.18;1715490;83;25788;-70
2022/09/27 09:24:47;;;;;;;12.28;7.67;;;;;;;15.63;74.74;96904.87;1715883;83;25488;-70
2022/09/27 09:27:28;;;;;;;14.63;10.00;;;;;;;15.63;74.74;96904.87;1715773;83;27552;-70
2022/09/27 09:30:20;;;;;;;11.60;9.90;;;;;;;15.74;74.80;96896.58;1698952;83;25781;-68
2022/09/27 09:33:11;;;;;;;15.63;11.03;;;;;;;15.88;74.77;96893.05;1715867;83;25702;-71
2022/09/27 09:36:03;;;;;;;13.55;9.58;;;;;;;16.06;75.30;96900.00;1718497;83;25698;-70
2022/09/27 09:38:51;;;;;;;10.40;8.43;;;;;;;15.98;73.64;96886.80;1724347;83;25455;-70
2022/09/27 09:41:28;;;;;;;12.33;9.00;;;;;;;16.03;73.29;96883.63;1727653;83;27449;-71
2022/09/27 09:44:09;;;;;;;12.63;8.35;;;;;;;16.22;73.02;96880.86;1727260;83;25443;-71
2022/09/27 09:46:45;;;;;;;10.18;7.95;;;;;;;16.52;72.29;96878.28;1711769;83;25504;-69
2022/09/27 09:49:23;;;;;;;10.08;8.28;;;;;;;16.76;70.56;96874.47;1727399;83;25757;-69
2022/09/27 09:52:03;;;;;;;11.38;6.60;;;;;;;16.87;70.78;96871.06;1727854;83;25431;-71
2022/09/27 09:54:41;;;;;;;10.00;7.05;;;;;;;17.04;68.60;96870.04;1727605;83;33440;-71
2022/09/27 09:57:22;;;;;;;9.38;7.12;;;;;;;17.12;69.54;96866.06;1727465;83;27169;-70
2022/09/27 10:00:14;;;;;;;8.40;6.65;;;;;;;17.18;70.75;96860.89;1727555;83;25418;-71
2022/09/27 10:02:44;;;;;;;7.90;6.17;;;;;;;17.32;68.34;96860.66;1727692;83;25784;-71
2022/09/27 10:05:24;;;;;;;7.03;5.83;;;;;;;17.27;67.65;96849.41;1727963;83;25527;-72
2022/09/27 10:07:55;;;;;;;6.42;5.30;;;;;;;17.25;66.79;96844.86;1727654;83;27533;-71
2022/09/27 10:10:22;;;;;;;8.08;5.70;;;;;;;17.20;66.01;96849.42;1727907;83;25617;-70
2022/09/27 10:12:49;;;;;;;9.78;6.35;;;;;;;17.22;66.51;96839.54;1727878;83;25488;-71
2022/09/27 10:15:20;;;;;;;7.50;5.95;;;;;;;17.27;66.12;96840.48;1727852;83;25857;-71
2022/09/27 10:17:53;;;;;;;13.70;6.42;;;;;;;17.41;65.74;96844.36;1727847;83;25658;-70
2022/09/27 10:20:48;;;;;;;9.03;6.53;;;;;;;17.53;65.53;96841.12;1727685;83;29058;-71
2022/09/27 10:23:20;;;;;;;6.80;5.35;;;;;;;17.61;65.95;96838.30;1727268;83;26276;-67
2022/09/27 10:25:59;;;;;;;7.42;6.60;;;;;;;17.70;64.85;96833.72;1727440;83;25923;-71
2022/09/27 10:28:38;;;;;;;10.93;7.53;;;;;;;17.78;66.14;96829.68;1727679;83;25901;-70
2022/09/27 10:31:13;;;;;;;10.15;6.80;;;;;;;17.93;65.77;96820.66;1727682;83;25732;-71
2022/09/27 10:34:00;;;;;;;8.60;6.70;;;;;;;18.04;65.57;96825.52;1721534;82;27531;-68
2022/09/27 10:36:31;;;;;;;9.68;7.15;;;;;;;18.09;65.18;96820.14;1729695;82;25619;-70
2022/09/27 10:39:03;;;;;;;9.63;7.60;;;;;;;18.10;64.76;96823.70;1727916;82;25729;-71
2022/09/27 10:41:41;;;;;;;8.93;6.67;;;;;;;18.02;66.21;96827.14;1725995;82;27217;-68
2022/09/27 10:44:28;;;;;;;8.70;6.10;;;;;;;18.04;66.49;96833.04;1728896;82;25775;-70
2022/09/27 10:46:59;;;;;;;9.93;8.88;;;;;;;18.20;67.12;96828.98;1721640;83;27494;-70
2022/09/27 10:49:29;;;;;;;7.72;5.70;;;;;;;18.35;66.70;96829.63;1726067;83;25790;-71
2022/09/27 10:52:03;;;;;;;7.72;5.70;;;;;;;18.34;64.12;96830.83;1727377;83;25727;-71
2022/09/27 10:54:39;;;;;;;7.10;5.67;;;;;;;18.32;64.77;96829.86;1726526;83;25735;-71
2022/09/27 10:57:16;;;;;;;8.78;5.53;;;;;;;18.30;64.20;96830.85;1728373;83;25661;-71
2022/09/27 10:59:47;;;;;;;6.92;5.08;;;;;;;18.22;63.97;96832.13;1723682;83;28215;-70
2022/09/27 11:02:25;;;;;;;7.17;5.78;;;;;;;18.12;65.05;96819.34;1727446;83;25454;-69
2022/09/27 11:05:16;;;;;;;7.90;6.15;;;;;;;18.08;64.59;96824.70;1727072;83;25744;-71
2022/09/27 11:08:01;;;;;;;9.45;5.05;;;;;;;17.97;64.97;96820.05;1725240;83;26245;-68
2022/09/27 11:10:34;;;;;;;7.62;4.67;;;;;;;17.86;64.45;96827.06;1727623;83;25481;-70
2022/09/27 11:13:20;;;;;;;5.33;4.72;;;;;;;17.73;64.57;96821.20;1727906;83;27543;-68
2022/09/27 11:16:19;;;;;;;5.92;4.58;;;;;;;17.59;64.11;96820.73;1727450;83;25707;-70
2022/09/27 11:19:13;;;;;;;6.40;5.17;;;;;;;17.40;64.08;96823.41;1633117;87;25737;-70
2022/09/27 11:22:17;;;;;;;6.20;4.67;;;;;;;17.27;64.95;96816.95;1633041;87;26727;-70
2022/09/27 11:25:03;;;;;;;7.25;4.03;;;;;;;17.17;65.01;96826.91;1631101;88;25803;-70
2022/09/27 11:27:56;;;;;;;8.60;5.75;;;;;;;17.10;64.53;96824.16;1631337;87;27508;-70
2022/09/27 11:30:28;;;;;;;10.48;5.40;;;;;;;16.93;64.93;96816.13;1631172;88;25545;-68
2022/09/27 11:33:36;;;;;;;7.60;3.77;;;;;;;16.79;65.33;96820.53;1631232;87;25640;-69
2022/09/27 11:36:14;;;;;;;7.28;4.90;;;;;;;16.63;66.08;96818.78;1630625;87;27884;-70
2022/09/27 11:39:01;;;;;;;6.60;4.85;;;;;;;16.36;67.08;96818.67;1631111;88;25745;-69
2022/09/27 11:41:42;;;;;;;7.55;4.37;;;;;;;16.20;68.12;96811.40;1630361;88;29249;-71
2022/09/27 11:44:30;;;;;;;;;;;;;;;16.10;69.17;96809.63;1633515;88;25694;-72
2022/09/27 11:47:27;;;;;;;7.62;4.75;;;;;;;16.02;69.65;96810.81;1630988;88;25835;-66
2022/09/27 11:50:31;;;;;;;8.28;5.78;;;;;;;15.91;70.69;96810.20;1631068;88;25719;-72
2022/09/27 11:53:36;;;;;;;11.68;6.90;;;;;;;15.87;71.78;96805.28;1631329;88;25593;-72
2022/09/27 11:56:36;;;;;;;9.68;5.58;;;;;;;15.87;71.78;96805.28;1652271;86;28178;-70
2022/09/27 11:59:46;;;;;;;9.90;5.70;;;;;;;15.86;70.98;96797.39;1664108;86;25721;-70
2022/09/27 12:02:20;;;;;;;10.00;5.35;;;;;;;15.91;71.19;96810.20;1718089;83;25664;-68